Time;durP1;ratioP1;P1;durP2;ratioP2;P2;SDS_P1;SDS_P2;PMS_P1;PMS_P2;Temp;Humidity;BMP_temperature;BMP_pressure;BME280_temperature;BME280_humidity;BME280_pressure;Samples;Min_cycle;Max_cycle;Signal;HPM_P1;HPM_P2
2022/03/21 00:00:22;;;;;;;1999.90;999.90;;;5.40;95.50;;;;;;5094457;28;20428;-70
2022/03/21 00:02:50;;;;;;;1999.90;999.90;;;5.30;95.40;;;;;;5095362;28;20505;-69
2022/03/21 00:05:17;;;;;;;1999.90;999.90;;;5.30;95.40;;;;;;5095113;28;20882;-69
2022/03/21 00:07:44;;;;;;;1999.90;999.90;;;5.30;95.20;;;;;;5083729;28;20437;-70
2022/03/21 00:10:11;;;;;;;1999.90;999.90;;;5.20;95.60;;;;;;5074528;28;20534;-69
2022/03/21 00:12:39;;;;;;;1999.90;999.90;;;5.20;95.60;;;;;;5085991;28;20502;-70
2022/03/21 00:15:10;;;;;;;1999.90;999.90;;;5.10;95.80;;;;;;5094692;28;20520;-69
2022/03/21 00:17:40;;;;;;;1999.90;999.90;;;5.10;95.90;;;;;;5094792;28;20479;-70
2022/03/21 00:20:10;;;;;;;1999.90;999.90;;;5.00;95.90;;;;;;5095468;28;20800;-69
2022/03/21 00:22:38;;;;;;;1999.90;999.90;;;5.10;96.10;;;;;;5094424;28;20440;-69
2022/03/21 00:25:06;;;;;;;1999.90;999.90;;;5.00;96.20;;;;;;5095066;28;20531;-68
2022/03/21 00:27:33;;;;;;;1999.90;999.90;;;4.90;96.70;;;;;;5094098;28;20455;-70
2022/03/21 00:30:00;;;;;;;1999.90;999.90;;;4.70;97.20;;;;;;5094605;28;20825;-71
2022/03/21 00:32:27;;;;;;;1999.90;999.90;;;4.70;97.20;;;;;;5094161;28;20797;-69
2022/03/21 00:34:53;;;;;;;1999.90;999.90;;;4.80;96.70;;;;;;5094962;28;20448;-70
2022/03/21 00:37:23;;;;;;;1999.90;999.90;;;4.80;96.30;;;;;;5094001;28;20468;-70
2022/03/21 00:39:50;;;;;;;1999.90;999.90;;;4.90;96.10;;;;;;5094860;28;20450;-71
2022/03/21 00:42:17;;;;;;;1999.90;999.90;;;5.00;96.00;;;;;;5082354;28;20452;-70
2022/03/21 00:44:43;;;;;;;1999.90;999.90;;;5.00;95.90;;;;;;5094623;28;20440;-70
2022/03/21 00:47:11;;;;;;;1999.90;999.90;;;5.00;95.70;;;;;;5094256;28;20464;-70
2022/03/21 00:49:38;;;;;;;1999.90;999.90;;;5.10;95.70;;;;;;5094361;28;20502;-70
2022/03/21 00:52:05;;;;;;;1999.90;999.90;;;5.10;95.70;;;;;;5093316;28;21003;-70
2022/03/21 00:54:33;;;;;;;1999.90;999.90;;;5.10;95.80;;;;;;5094421;28;20473;-70
2022/03/21 00:57:00;;;;;;;1999.90;999.90;;;5.10;95.80;;;;;;5093838;28;20545;-71
2022/03/21 00:59:26;;;;;;;1999.90;999.90;;;5.10;95.80;;;;;;5094337;28;20441;-70
2022/03/21 01:01:53;;;;;;;1999.90;999.90;;;5.00;95.80;;;;;;5093973;28;20444;-70
2022/03/21 01:04:19;;;;;;;1999.90;999.90;;;5.00;95.80;;;;;;5093897;28;20444;-70
2022/03/21 01:06:46;;;;;;;1999.90;999.90;;;5.00;96.20;;;;;;5093347;28;20541;-70
2022/03/21 01:09:16;;;;;;;1999.90;999.90;;;4.80;96.70;;;;;;5093388;28;20444;-70
2022/03/21 01:11:44;;;;;;;1999.90;999.90;;;4.60;97.50;;;;;;5094082;28;20543;-70
2022/03/21 01:14:11;;;;;;;1999.90;999.90;;;4.40;98.20;;;;;;5093613;28;20470;-71
2022/03/21 01:16:38;;;;;;;1999.90;999.90;;;4.10;98.80;;;;;;5094143;28;20468;-70
2022/03/21 01:19:05;;;;;;;1999.90;999.90;;;4.00;99.30;;;;;;5093418;28;20560;-70
2022/03/21 01:21:32;;;;;;;1999.90;999.90;;;3.90;99.80;;;;;;5093420;28;20954;-69
2022/03/21 01:23:59;;;;;;;1999.90;999.90;;;3.90;99.90;;;;;;5093491;28;20445;-70
2022/03/21 01:26:25;;;;;;;1999.90;999.90;;;4.00;99.70;;;;;;5093954;28;20839;-70
2022/03/21 01:28:53;;;;;;;1999.90;999.90;;;4.10;99.40;;;;;;5093512;28;20489;-70
2022/03/21 01:31:20;;;;;;;1999.90;999.90;;;4.10;99.70;;;;;;5093376;28;20481;-70
2022/03/21 01:33:47;;;;;;;1999.90;999.90;;;4.00;99.60;;;;;;5089543;28;20445;-69
2022/03/21 01:36:13;;;;;;;1999.90;999.90;;;4.00;99.40;;;;;;5073211;28;20465;-69
2022/03/21 01:38:40;;;;;;;1999.90;999.90;;;4.00;99.10;;;;;;5076635;28;20498;-70
2022/03/21 01:41:07;;;;;;;1999.90;999.90;;;4.10;98.80;;;;;;5093527;28;20470;-70
2022/03/21 01:43:33;;;;;;;1999.90;999.90;;;4.10;98.80;;;;;;5093553;28;20494;-70
2022/03/21 01:46:01;;;;;;;1999.90;999.90;;;4.10;99.10;;;;;;5092858;28;20468;-70
2022/03/21 01:48:28;;;;;;;1999.90;999.90;;;4.00;99.20;;;;;;5092823;28;20449;-70
2022/03/21 01:50:55;;;;;;;1999.90;999.90;;;4.00;99.30;;;;;;5092914;28;20483;-70
2022/03/21 01:56:06;;;;;;;1999.90;999.90;;;3.90;99.70;;;;;;5072871;28;20441;-69
2022/03/21 01:58:34;;;;;;;1999.90;999.90;;;4.00;99.70;;;;;;5074805;28;20449;-70
2022/03/21 02:01:02;;;;;;;1999.90;999.90;;;3.90;99.80;;;;;;5092705;28;20451;-70
2022/03/21 02:03:29;;;;;;;1999.90;999.90;;;3.80;99.90;;;;;;5093082;28;20449;-70
2022/03/21 02:05:56;;;;;;;1999.90;999.90;;;3.70;99.90;;;;;;5092671;28;20484;-70
2022/03/21 02:08:24;;;;;;;1999.90;999.90;;;3.60;99.90;;;;;;5092339;28;20464;-69
2022/03/21 02:10:51;;;;;;;1999.90;999.90;;;3.60;99.90;;;;;;5072187;28;20500;-70
2022/03/21 02:13:19;;;;;;;1999.90;999.90;;;3.70;99.90;;;;;;5088533;28;20555;-70
2022/03/21 02:15:46;;;;;;;1999.90;999.90;;;3.70;99.90;;;;;;5092602;28;20472;-70
2022/03/21 02:18:18;;;;;;;1999.90;999.90;;;3.80;99.90;;;;;;5092586;28;20506;-70
2022/03/21 02:20:45;;;;;;;1999.90;999.90;;;3.80;99.90;;;;;;5092732;28;20444;-70
2022/03/21 02:23:19;;;;;;;1999.90;999.90;;;3.90;99.90;;;;;;5092170;28;20482;-70
2022/03/21 02:25:48;;;;;;;1999.90;999.90;;;3.90;99.90;;;;;;5092851;28;20460;-68
2022/03/21 02:28:16;;;;;;;1999.90;999.90;;;3.90;99.90;;;;;;5092013;28;20464;-70
2022/03/21 02:30:46;;;;;;;1999.90;999.90;;;3.90;99.90;;;;;;5091831;28;20896;-69
2022/03/21 02:33:14;;;;;;;1999.90;999.90;;;3.80;99.90;;;;;;5092389;28;20452;-70
2022/03/21 02:35:44;;;;;;;1999.90;999.90;;;3.60;99.90;;;;;;5092337;28;20522;-71
2022/03/21 02:38:12;;;;;;;1999.90;999.90;;;3.70;99.90;;;;;;5092025;28;20440;-70
2022/03/21 02:40:39;;;;;;;1999.90;999.90;;;3.80;99.90;;;;;;5091889;28;20440;-70
2022/03/21 02:43:07;;;;;;;1999.90;999.90;;;3.90;99.90;;;;;;5092305;28;20502;-70
2022/03/21 02:45:34;;;;;;;1999.90;999.90;;;4.00;99.90;;;;;;5091894;28;20519;-70
2022/03/21 02:48:01;;;;;;;1999.90;999.90;;;4.00;99.90;;;;;;5092489;28;20449;-70
2022/03/21 02:50:33;;;;;;;1999.90;999.90;;;4.00;99.90;;;;;;5091187;28;20557;-70
2022/03/21 02:53:01;;;;;;;1999.90;999.90;;;4.00;99.90;;;;;;5091591;28;21002;-70
2022/03/21 02:55:27;;;;;;;1999.90;999.90;;;4.10;99.90;;;;;;5092240;28;20479;-70
2022/03/21 02:57:54;;;;;;;1999.90;999.90;;;4.10;99.70;;;;;;5088783;28;20866;-70
2022/03/21 03:00:22;;;;;;;1999.90;999.90;;;4.10;99.90;;;;;;5083101;28;20936;-70
2022/03/21 03:02:49;;;;;;;1999.90;999.90;;;4.00;99.90;;;;;;5092308;28;20456;-70
2022/03/21 03:05:15;;;;;;;1999.90;999.90;;;4.00;99.90;;;;;;5091837;28;20448;-70
2022/03/21 03:07:42;;;;;;;1999.90;999.90;;;3.90;99.90;;;;;;5091641;28;20940;-70
2022/03/21 03:10:09;;;;;;;1999.90;999.90;;;3.80;99.90;;;;;;5091472;28;20999;-69
2022/03/21 03:12:36;;;;;;;1999.90;999.90;;;3.80;99.90;;;;;;5091510;28;20456;-70
2022/03/21 03:15:02;;;;;;;1999.90;999.90;;;3.80;99.90;;;;;;5091562;28;20448;-70
2022/03/21 03:17:30;;;;;;;1999.90;999.90;;;3.70;99.90;;;;;;5091892;28;20460;-70
2022/03/21 03:19:57;;;;;;;1999.90;999.90;;;3.70;99.90;;;;;;5092109;28;20436;-70
2022/03/21 03:22:26;;;;;;;1999.90;999.90;;;3.70;99.90;;;;;;5091864;28;20440;-70
2022/03/21 03:24:53;;;;;;;1999.90;999.90;;;3.60;99.90;;;;;;5092640;28;20474;-70
2022/03/21 03:27:19;;;;;;;1999.90;999.90;;;3.70;99.90;;;;;;5092089;28;20472;-71
2022/03/21 03:29:46;;;;;;;1999.90;999.90;;;3.70;99.90;;;;;;5092595;28;20445;-70
2022/03/21 03:32:13;;;;;;;1999.90;999.90;;;3.60;99.90;;;;;;5092297;28;20440;-68
2022/03/21 03:34:41;;;;;;;1999.90;999.90;;;3.40;99.90;;;;;;5092286;28;20876;-70
2022/03/21 03:37:08;;;;;;;1999.90;999.90;;;3.10;99.90;;;;;;5091668;28;20465;-69
2022/03/21 03:39:35;;;;;;;1999.90;999.90;;;3.10;99.90;;;;;;5091273;28;20460;-70
2022/03/21 03:42:01;;;;;;;1999.90;999.90;;;3.00;99.90;;;;;;5090986;28;20437;-70
2022/03/21 03:44:28;;;;;;;1999.90;999.90;;;2.70;99.90;;;;;;5091849;28;20448;-70
2022/03/21 03:46:55;;;;;;;1999.90;999.90;;;2.50;99.90;;;;;;5091529;28;20988;-70
2022/03/21 03:49:23;;;;;;;1999.90;999.90;;;2.30;99.90;;;;;;5091678;28;20455;-69
2022/03/21 03:51:51;;;;;;;1999.90;999.90;;;2.60;99.90;;;;;;5091661;28;20491;-70
2022/03/21 03:54:18;;;;;;;1999.90;999.90;;;2.10;99.90;;;;;;5091200;28;20952;-70
2022/03/21 03:56:45;;;;;;;1999.90;999.90;;;2.10;99.90;;;;;;5091258;28;20545;-71
2022/03/21 03:59:11;;;;;;;1999.90;999.90;;;2.00;99.90;;;;;;5091203;28;20448;-70
2022/03/21 04:01:38;;;;;;;1999.90;999.90;;;2.00;99.90;;;;;;5092476;28;20436;-70
2022/03/21 04:04:04;;;;;;;1999.90;999.90;;;2.00;99.90;;;;;;5095348;28;20444;-70
2022/03/21 04:06:31;;;;;;;1999.90;999.90;;;2.10;99.90;;;;;;5095181;28;20559;-70
2022/03/21 04:08:59;;;;;;;1999.90;999.90;;;2.00;99.90;;;;;;5094572;28;20530;-70
2022/03/21 04:11:26;;;;;;;1999.90;999.90;;;2.00;99.90;;;;;;5094511;28;20468;-70
2022/03/21 04:13:53;;;;;;;1999.90;999.90;;;2.00;99.90;;;;;;5095060;28;20440;-70
2022/03/21 04:16:20;;;;;;;1999.90;999.90;;;2.00;99.90;;;;;;5094671;28;20508;-70
2022/03/21 04:18:48;;;;;;;1999.90;999.90;;;2.00;99.90;;;;;;5095039;28;20936;-70
2022/03/21 04:21:15;;;;;;;1999.90;999.90;;;2.00;99.90;;;;;;5094599;28;20479;-70
2022/03/21 04:23:41;;;;;;;1999.90;999.90;;;2.10;99.90;;;;;;5095192;28;20452;-70
2022/03/21 04:26:09;;;;;;;1999.90;999.90;;;2.50;99.90;;;;;;5094355;28;20471;-70
2022/03/21 04:28:36;;;;;;;1999.90;999.90;;;2.10;99.90;;;;;;5094248;28;20445;-70
2022/03/21 04:31:03;;;;;;;1999.90;999.90;;;2.00;99.90;;;;;;5094255;28;20525;-69
2022/03/21 04:33:30;;;;;;;1999.90;999.90;;;1.90;99.90;;;;;;5094816;28;20521;-70
2022/03/21 04:35:56;;;;;;;1999.90;999.90;;;2.00;99.90;;;;;;5094407;28;21014;-70
2022/03/21 04:38:23;;;;;;;1999.90;999.90;;;1.90;99.90;;;;;;5094829;28;20448;-70
2022/03/21 04:40:51;;;;;;;1999.90;999.90;;;1.90;99.90;;;;;;5094127;28;20449;-70
2022/03/21 04:43:20;;;;;;;1999.90;999.90;;;1.80;99.90;;;;;;5094479;28;20460;-70
2022/03/21 04:45:49;;;;;;;1999.90;999.90;;;1.80;99.90;;;;;;5094530;28;20469;-71
2022/03/21 04:48:16;;;;;;;1999.90;999.90;;;2.10;99.90;;;;;;5094102;28;20452;-70
2022/03/21 04:50:43;;;;;;;1999.90;999.90;;;2.00;99.90;;;;;;5094406;28;20828;-70
2022/03/21 04:53:10;;;;;;;1999.90;999.90;;;2.00;99.90;;;;;;5094519;28;20532;-70
2022/03/21 04:55:38;;;;;;;1999.90;999.90;;;2.00;99.90;;;;;;5094120;28;20468;-70
2022/03/21 04:58:04;;;;;;;1999.90;999.90;;;2.00;99.90;;;;;;5094491;28;20831;-70
2022/03/21 05:00:33;;;;;;;1999.90;999.90;;;2.00;99.90;;;;;;5093989;28;20850;-70
2022/03/21 05:03:00;;;;;;;1999.90;999.90;;;2.10;99.90;;;;;;5093940;28;20449;-70
2022/03/21 05:05:27;;;;;;;1999.90;999.90;;;2.70;99.90;;;;;;5093838;28;20479;-70
2022/03/21 05:07:54;;;;;;;1999.90;999.90;;;2.20;99.90;;;;;;5094156;22;20543;-67
2022/03/21 05:10:22;;;;;;;1999.90;999.90;;;2.30;99.90;;;;;;5055450;28;20450;-68
2022/03/21 05:12:49;;;;;;;1999.90;999.90;;;2.20;99.90;;;;;;5069143;28;20540;-68
2022/03/21 05:15:15;;;;;;;1999.90;999.90;;;2.40;99.90;;;;;;5073576;28;20453;-70
2022/03/21 05:17:44;;;;;;;1999.90;999.90;;;2.20;99.90;;;;;;5073486;28;20519;-68
2022/03/21 05:20:18;;;;;;;1999.90;999.90;;;2.20;99.90;;;;;;5073644;28;20481;-68
2022/03/21 05:30:57;;;;;;;1999.90;999.90;;;2.10;99.90;;;;;;5067716;28;20445;-70
2022/03/21 05:31:03;;;;;;;1999.90;999.90;;;2.10;99.90;;;;;;5073248;28;20495;-68
2022/03/21 05:36:16;;;;;;;1999.90;999.90;;;2.10;99.90;;;;;;5073685;28;20452;-68
2022/03/21 05:38:42;;;;;;;1999.90;999.90;;;2.20;99.90;;;;;;5069675;28;20449;-68
2022/03/21 05:41:09;;;;;;;1999.90;999.90;;;2.30;99.90;;;;;;5073231;28;20441;-69
2022/03/21 05:43:36;;;;;;;1999.90;999.90;;;2.30;99.90;;;;;;5073401;28;20519;-68
2022/03/21 05:46:04;;;;;;;1999.90;999.90;;;2.30;99.90;;;;;;5073641;28;20444;-68
2022/03/21 05:51:17;;;;;;;1999.90;999.90;;;2.30;99.90;;;;;;5058920;28;20488;-69
2022/03/21 05:53:45;;;;;;;1999.90;999.90;;;2.40;99.90;;;;;;5069474;28;20544;-69
2022/03/21 05:56:12;;;;;;;1999.90;999.90;;;2.50;99.90;;;;;;5067776;28;20473;-69
2022/03/21 05:58:38;;;;;;;1999.90;999.90;;;2.50;99.90;;;;;;5067986;28;20449;-67
2022/03/21 06:01:05;;;;;;;1999.90;999.90;;;2.60;99.90;;;;;;5072610;28;20999;-68
2022/03/21 06:03:34;;;;;;;1999.90;999.90;;;2.60;99.90;;;;;;5072818;28;20456;-69
2022/03/21 06:06:00;;;;;;;1999.90;999.90;;;2.70;99.90;;;;;;5072331;28;20957;-69
2022/03/21 06:08:28;;;;;;;1999.90;999.90;;;2.70;99.90;;;;;;5069342;28;20449;-67
2022/03/21 06:11:03;;;;;;;1999.90;999.90;;;2.70;99.90;;;;;;5067767;28;20477;-67
2022/03/21 06:13:31;;;;;;;1999.90;999.90;;;2.70;99.90;;;;;;5072715;28;20449;-68
2022/03/21 06:16:03;;;;;;;1999.90;999.90;;;2.70;99.90;;;;;;5072402;28;20948;-70
2022/03/21 06:18:30;;;;;;;1999.90;999.90;;;2.80;99.90;;;;;;5073173;28;20473;-69
2022/03/21 06:20:58;;;;;;;1999.90;999.90;;;2.80;99.90;;;;;;5072236;28;20450;-69
2022/03/21 06:23:25;;;;;;;1999.90;999.90;;;2.70;99.90;;;;;;5071287;28;20503;-68
2022/03/21 06:25:53;;;;;;;1999.90;999.90;;;2.80;99.90;;;;;;5069115;28;20465;-67
2022/03/21 06:28:20;;;;;;;1999.90;999.90;;;2.80;99.90;;;;;;5072885;28;20450;-71
2022/03/21 06:30:47;;;;;;;1999.90;999.90;;;2.90;99.90;;;;;;5072061;28;20477;-70
2022/03/21 06:33:13;;;;;;;1999.90;999.90;;;2.90;99.90;;;;;;5072591;28;20453;-69
2022/03/21 06:35:40;;;;;;;1999.90;999.90;;;3.00;99.90;;;;;;5072406;28;20445;-67
2022/03/21 06:38:08;;;;;;;1999.90;999.90;;;3.10;99.90;;;;;;5072246;28;20488;-70
2022/03/21 06:40:35;;;;;;;1999.90;999.90;;;3.30;99.90;;;;;;5072622;28;20499;-69
2022/03/21 06:43:02;;;;;;;1999.90;999.90;;;3.40;99.90;;;;;;5072170;28;20450;-69
2022/03/21 06:45:29;;;;;;;1999.90;999.90;;;3.50;99.90;;;;;;5071944;28;20477;-70
2022/03/21 06:47:57;;;;;;;1999.90;999.90;;;3.70;99.90;;;;;;5072454;28;20523;-70
2022/03/21 06:50:23;;;;;;;1999.90;999.90;;;3.90;99.90;;;;;;5071241;28;20998;-69
2022/03/21 06:52:50;;;;;;;1999.90;999.90;;;4.00;99.90;;;;;;5071901;28;20481;-70
2022/03/21 06:55:20;;;;;;;1999.90;999.90;;;4.20;99.90;;;;;;5072175;28;20454;-69
2022/03/21 06:57:47;;;;;;;1999.90;999.90;;;4.30;99.90;;;;;;5070953;28;20497;-68
2022/03/21 07:00:14;;;;;;;1999.90;999.90;;;4.40;99.90;;;;;;5067458;28;20457;-67
2022/03/21 07:02:42;;;;;;;1999.90;999.90;;;4.70;99.90;;;;;;5071636;28;20445;-66
2022/03/21 07:05:09;;;;;;;1999.90;999.90;;;4.80;99.90;;;;;;5066592;28;20655;-67
2022/03/21 07:07:36;;;;;;;1999.90;999.90;;;4.90;99.90;;;;;;5092230;28;20480;-66
2022/03/21 07:10:05;;;;;;;1999.90;999.90;;;5.00;99.90;;;;;;5072364;28;20547;-67
2022/03/21 07:12:34;;;;;;;1999.90;999.90;;;5.10;99.90;;;;;;5072036;28;20473;-68
2022/03/21 07:15:00;;;;;;;1999.90;999.90;;;5.10;99.90;;;;;;5071466;28;20454;-67
2022/03/21 07:17:27;;;;;;;1999.90;999.90;;;5.50;99.90;;;;;;5071405;28;20469;-66
2022/03/21 07:19:54;;;;;;;1999.90;999.90;;;5.60;99.90;;;;;;5071871;28;20448;-68
2022/03/21 07:22:20;;;;;;;1999.90;999.90;;;5.70;99.90;;;;;;5071742;28;20434;-67
2022/03/21 07:24:47;;;;;;;1999.90;999.90;;;6.10;99.90;;;;;;5071728;28;20445;-67
2022/03/21 07:27:14;;;;;;;1999.90;999.90;;;6.00;99.90;;;;;;5071653;28;20473;-67
2022/03/21 07:29:42;;;;;;;1999.90;999.90;;;6.20;99.90;;;;;;5071610;28;20945;-68
2022/03/21 07:32:09;;;;;;;1999.90;999.90;;;6.40;99.90;;;;;;5069493;28;20477;-66
2022/03/21 07:34:36;;;;;;;1999.90;999.90;;;6.20;99.90;;;;;;5071498;28;20449;-67
2022/03/21 07:37:03;;;;;;;1999.90;999.90;;;6.20;99.90;;;;;;5072086;28;20469;-67
2022/03/21 07:39:33;;;;;;;1999.90;999.90;;;6.10;99.90;;;;;;5075835;28;20449;-69
2022/03/21 07:42:01;;;;;;;1999.90;999.90;;;6.30;99.90;;;;;;5075531;28;20826;-68
2022/03/21 07:47:21;;;;;;;1999.90;999.90;;;6.50;99.90;;;;;;5075700;28;20440;-68
2022/03/21 07:49:49;;;;;;;1999.90;999.90;;;6.90;99.90;;;;;;5075475;28;20444;-68
2022/03/21 07:52:20;;;;;;;1999.90;999.90;;;6.80;99.80;;;;;;5075237;28;20558;-68
2022/03/21 07:54:48;;;;;;;1999.90;999.90;;;6.90;99.90;;;;;;5075467;28;20537;-69
2022/03/21 07:57:14;;;;;;;1999.90;999.90;;;7.10;99.90;;;;;;5075269;28;20475;-68
2022/03/21 07:59:41;;;;;;;1999.90;999.90;;;7.30;99.50;;;;;;5075794;28;20449;-68
2022/03/21 08:02:08;;;;;;;1999.90;999.90;;;7.50;99.10;;;;;;5074708;28;20452;-68
2022/03/21 08:04:36;;;;;;;1999.90;999.90;;;7.50;98.40;;;;;;5074788;28;20449;-68
2022/03/21 08:07:03;;;;;;;1999.90;999.90;;;7.50;98.70;;;;;;5074606;28;20473;-68
2022/03/21 08:09:30;;;;;;;1999.90;999.90;;;7.70;98.40;;;;;;5073001;28;20527;-67
2022/03/21 08:11:58;;;;;;;1999.90;999.90;;;7.60;97.80;;;;;;5074549;28;20477;-68
2022/03/21 08:14:24;;;;;;;1999.90;999.90;;;7.80;97.70;;;;;;5075177;28;20528;-68
2022/03/21 08:16:51;;;;;;;1999.90;999.90;;;8.00;97.50;;;;;;5074562;28;20473;-67
2022/03/21 08:19:19;;;;;;;1999.90;999.90;;;8.00;97.30;;;;;;5069281;28;20457;-68
2022/03/21 08:21:47;;;;;;;1999.90;999.90;;;8.20;97.20;;;;;;5070557;28;20994;-69
2022/03/21 08:24:14;;;;;;;1999.90;999.90;;;8.40;96.80;;;;;;5084415;28;20509;-70
2022/03/21 08:26:40;;;;;;;1999.90;999.90;;;8.50;96.60;;;;;;5073836;28;20465;-70
2022/03/21 08:29:08;;;;;;;1999.90;999.90;;;8.60;96.50;;;;;;5077324;28;20502;-70
2022/03/21 08:31:34;;;;;;;1999.90;999.90;;;8.90;96.10;;;;;;5083819;28;20495;-70
2022/03/21 08:34:03;;;;;;;1999.90;999.90;;;8.90;95.10;;;;;;5074709;28;20457;-70
2022/03/21 08:36:30;;;;;;;1999.90;999.90;;;8.80;95.40;;;;;;5077569;28;20508;-71
2022/03/21 08:38:58;;;;;;;1999.90;999.90;;;8.90;95.70;;;;;;5077033;28;20495;-70
2022/03/21 08:41:25;;;;;;;1999.90;999.90;;;8.70;95.40;;;;;;5074389;28;20441;-70
2022/03/21 08:43:52;;;;;;;1999.90;999.90;;;9.00;95.60;;;;;;5073816;28;20503;-70
2022/03/21 08:46:19;;;;;;;1999.90;999.90;;;9.10;96.00;;;;;;5078214;28;20846;-71
2022/03/21 08:51:31;;;;;;;1999.90;999.90;;;9.40;94.90;;;;;;5061108;28;20431;-70
2022/03/21 08:54:00;;;;;;;1999.90;999.90;;;9.60;94.90;;;;;;5057528;28;20540;-70
2022/03/21 08:56:28;;;;;;;1999.90;999.90;;;9.80;94.90;;;;;;5071569;28;20851;-71
2022/03/21 08:58:54;;;;;;;1999.90;999.90;;;10.10;93.90;;;;;;5072436;28;20488;-70
2022/03/21 09:01:22;;;;;;;1999.90;999.90;;;10.00;94.10;;;;;;5073168;28;20965;-69
2022/03/21 09:03:48;;;;;;;1999.90;999.90;;;10.20;93.40;;;;;;5074083;28;20831;-71
2022/03/21 09:06:15;;;;;;;1999.90;999.90;;;10.10;93.00;;;;;;5073730;28;20473;-71
2022/03/21 09:08:42;;;;;;;1999.90;999.90;;;10.20;93.20;;;;;;5074079;28;20511;-70
2022/03/21 09:11:10;;;;;;;1999.90;999.90;;;10.40;93.60;;;;;;5073880;28;20454;-69
2022/03/21 09:13:37;;;;;;;1999.90;999.90;;;10.60;92.80;;;;;;5072836;28;20909;-68
2022/03/21 09:16:05;;;;;;;1999.90;999.90;;;10.80;93.00;;;;;;5073525;28;20453;-68
2022/03/21 09:18:32;;;;;;;1999.90;999.90;;;10.80;92.50;;;;;;5073721;28;20507;-69
2022/03/21 09:20:59;;;;;;;1999.90;999.90;;;10.90;92.40;;;;;;5071854;28;20441;-69
2022/03/21 09:23:25;;;;;;;1999.90;999.90;;;11.00;92.40;;;;;;5073105;28;20544;-68
2022/03/21 09:25:52;;;;;;;1999.90;999.90;;;11.20;92.20;;;;;;5074049;28;20480;-68
2022/03/21 09:28:20;;;;;;;1999.90;999.90;;;11.10;91.90;;;;;;5074075;28;20453;-68
2022/03/21 09:30:47;;;;;;;1999.90;999.90;;;11.20;91.80;;;;;;5073638;28;20483;-69
2022/03/21 09:33:15;;;;;;;1999.90;999.90;;;11.20;91.80;;;;;;5073074;28;20757;-69
2022/03/21 09:35:43;;;;;;;1999.90;999.90;;;11.30;91.90;;;;;;5071966;28;20968;-68
2022/03/21 09:38:09;;;;;;;1999.90;999.90;;;11.20;91.50;;;;;;5073574;28;20473;-68
2022/03/21 09:40:37;;;;;;;1999.90;999.90;;;11.30;91.50;;;;;;5073670;28;20444;-68
2022/03/21 09:43:03;;;;;;;1999.90;999.90;;;11.40;91.90;;;;;;5073503;28;20517;-68
2022/03/21 09:45:32;;;;;;;1999.90;999.90;;;11.60;91.60;;;;;;5073432;28;20437;-70
2022/03/21 09:48:12;;;;;;;1999.90;999.90;;;11.60;91.10;;;;;;5072878;28;20466;-68
2022/03/21 09:50:42;;;;;;;1999.90;999.90;;;11.60;91.30;;;;;;5072601;28;20456;-69
2022/03/21 09:53:10;;;;;;;1999.90;999.90;;;11.70;90.90;;;;;;5073052;28;20485;-69
2022/03/21 09:55:37;;;;;;;1999.90;999.90;;;11.90;90.60;;;;;;5073208;28;20879;-68
2022/03/21 09:58:04;;;;;;;1999.90;999.90;;;12.00;89.70;;;;;;5073819;28;20466;-68
2022/03/21 10:00:32;;;;;;;1999.90;999.90;;;11.90;90.00;;;;;;5072665;28;20865;-68
2022/03/21 10:02:59;;;;;;;1999.90;999.90;;;12.00;90.50;;;;;;5072344;28;20490;-68
2022/03/21 10:05:34;;;;;;;1999.90;999.90;;;12.10;90.40;;;;;;5073149;28;20503;-68
2022/03/21 10:08:15;;;;;;;1999.90;999.90;;;12.30;90.20;;;;;;5072799;28;20606;-68
2022/03/21 10:10:52;;;;;;;1999.90;999.90;;;12.50;90.60;;;;;;5071996;28;20495;-73
2022/03/21 10:13:18;;;;;;;1999.90;999.90;;;12.80;90.00;;;;;;5072888;28;20898;-71
2022/03/21 10:15:46;;;;;;;1999.90;999.90;;;12.90;89.20;;;;;;5072555;28;20511;-69
2022/03/21 10:18:14;;;;;;;1999.90;999.90;;;12.80;87.90;;;;;;5073872;28;20458;-69
2022/03/21 10:20:41;;;;;;;1999.90;999.90;;;12.70;88.10;;;;;;5072747;28;20476;-70
2022/03/21 10:23:22;;;;;;;1999.90;999.90;;;12.80;88.30;;;;;;5072462;28;20491;-69
2022/03/21 10:25:51;;;;;;;1999.90;999.90;;;13.20;88.70;;;;;;5072749;28;20450;-69
2022/03/21 10:28:34;;;;;;;1999.90;999.90;;;12.80;87.10;;;;;;5073705;28;20473;-69
2022/03/21 10:31:03;;;;;;;1999.90;999.90;;;12.60;88.50;;;;;;5073488;28;20507;-68
2022/03/21 10:33:30;;;;;;;1999.90;999.90;;;12.70;87.70;;;;;;5072627;28;20871;-69
2022/03/21 10:36:04;;;;;;;1999.90;999.90;;;12.90;88.00;;;;;;5071252;28;20872;-71
2022/03/21 10:38:33;;;;;;;1999.90;999.90;;;13.10;88.90;;;;;;5070597;28;20949;-72
2022/03/21 10:41:06;;;;;;;1999.90;999.90;;;13.40;87.90;;;;;;5071872;28;20441;-69
2022/03/21 10:43:33;;;;;;;1999.90;999.90;;;13.30;86.90;;;;;;5072573;28;20450;-71
2022/03/21 10:46:02;;;;;;;1999.90;999.90;;;13.20;87.90;;;;;;5071272;28;20507;-69
2022/03/21 10:48:31;;;;;;;1999.90;999.90;;;13.30;85.20;;;;;;5072244;28;20586;-69
2022/03/21 10:51:00;;;;;;;1999.90;999.90;;;13.30;85.90;;;;;;5072149;28;20575;-69
2022/03/21 10:53:28;;;;;;;1999.90;999.90;;;13.30;85.90;;;;;;5071956;28;20996;-70
2022/03/21 10:56:02;;;;;;;1999.90;999.90;;;13.40;86.60;;;;;;5072359;28;20445;-69
2022/03/21 10:58:34;;;;;;;1999.90;999.90;;;13.50;86.30;;;;;;5072188;28;20524;-71
2022/03/21 11:01:12;;;;;;;1999.90;999.90;;;13.60;84.60;;;;;;5071623;28;20882;-71
2022/03/21 11:03:41;;;;;;;1999.90;999.90;;;13.60;86.00;;;;;;5052105;28;20445;-70
2022/03/21 11:06:08;;;;;;;1999.90;999.90;;;13.70;86.00;;;;;;5051758;28;20965;-70
2022/03/21 11:08:35;;;;;;;1999.90;999.90;;;13.80;86.10;;;;;;5087389;22;20562;-69
2022/03/21 11:11:02;;;;;;;1999.90;999.90;;;13.70;85.00;;;;;;5062232;28;20508;-69
2022/03/21 11:13:30;;;;;;;1999.90;999.90;;;13.90;86.50;;;;;;5065694;28;20527;-70
2022/03/21 11:15:58;;;;;;;1999.90;999.90;;;13.90;84.50;;;;;;5072018;28;20446;-70
2022/03/21 11:18:27;;;;;;;1999.90;999.90;;;13.70;86.00;;;;;;5071950;28;20522;-70
2022/03/21 11:20:54;;;;;;;1999.90;999.90;;;13.90;86.40;;;;;;5071235;28;21000;-70
2022/03/21 11:23:21;;;;;;;1999.90;999.90;;;13.90;86.80;;;;;;5072294;28;20465;-70
2022/03/21 11:25:52;;;;;;;1999.90;999.90;;;13.90;83.20;;;;;;5071916;28;20527;-70
2022/03/21 11:28:39;;;;;;;1999.90;999.90;;;13.90;86.10;;;;;;5071923;28;20477;-70
2022/03/21 11:31:23;;;;;;;1999.90;999.90;;;13.90;84.60;;;;;;5071184;28;20859;-70
2022/03/21 11:34:01;;;;;;;1999.90;999.90;;;14.10;84.80;;;;;;5071423;28;20472;-69
2022/03/21 11:36:30;;;;;;;1999.90;999.90;;;14.10;84.60;;;;;;5071322;28;20453;-71
2022/03/21 11:39:00;;;;;;;1999.90;999.90;;;14.10;84.60;;;;;;5071288;28;20952;-70
2022/03/21 11:41:29;;;;;;;1999.90;999.90;;;14.20;84.00;;;;;;5071438;28;20449;-71
2022/03/21 11:44:14;;;;;;;1999.90;999.90;;;14.30;82.10;;;;;;5071437;28;21031;-70
2022/03/21 11:46:44;;;;;;;1999.90;999.90;;;14.30;83.80;;;;;;5071480;28;20437;-70
2022/03/21 11:49:45;;;;;;;1999.90;999.90;;;14.50;85.40;;;;;;5071464;28;20895;-70
2022/03/21 11:52:12;;;;;;;1999.90;999.90;;;14.60;81.80;;;;;;5070750;28;20445;-70
2022/03/21 11:54:39;;;;;;;1999.90;999.90;;;14.50;83.60;;;;;;5071089;28;20488;-70
2022/03/21 11:57:07;;;;;;;1999.90;999.90;;;14.50;82.00;;;;;;5070508;28;20469;-70
2022/03/21 12:00:03;;;;;;;1999.90;999.90;;;14.40;81.90;;;;;;5064905;28;20450;-70
2022/03/21 12:02:59;;;;;;;1999.90;999.90;;;14.40;82.20;;;;;;5057161;28;20453;-70
2022/03/21 12:05:53;;;;;;;1999.90;999.90;;;14.40;82.40;;;;;;5071853;28;20444;-71
2022/03/21 12:08:48;;;;;;;1999.90;999.90;;;14.50;83.30;;;;;;5067806;28;20480;-70
2022/03/21 12:11:48;;;;;;;1999.90;999.90;;;14.40;84.00;;;;;;5070185;28;20941;-70
2022/03/21 12:14:23;;;;;;;1999.90;999.90;;;14.60;84.10;;;;;;5070613;28;20493;-70
2022/03/21 12:17:26;;;;;;;1999.90;999.90;;;14.80;81.30;;;;;;5068440;28;20998;-69
2022/03/21 12:20:05;;;;;;;1999.90;999.90;;;14.90;80.30;;;;;;5072697;28;20994;-70
2022/03/21 12:22:40;;;;;;;1999.90;999.90;;;15.00;81.70;;;;;;5067706;28;20453;-70
2022/03/21 12:25:09;;;;;;;1999.90;999.90;;;15.00;81.70;;;;;;5074012;28;20487;-70
2022/03/21 12:27:38;;;;;;;1999.90;999.90;;;15.10;82.70;;;;;;5074329;28;20465;-70
2022/03/21 12:30:39;;;;;;;1999.90;999.90;;;14.80;79.70;;;;;;5074425;28;20454;-70
2022/03/21 12:33:30;;;;;;;1999.90;999.90;;;14.70;80.70;;;;;;5073890;28;20530;-70